Time;durP1;ratioP1;P1;durP2;ratioP2;P2;SDS_P1;SDS_P2;PMS_P1;PMS_P2;Temp;Humidity;BMP_temperature;BMP_pressure;BME280_temperature;BME280_humidity;BME280_pressure;Samples;Min_cycle;Max_cycle;Signal;HPM_P1;HPM_P2
2023/06/30 00:00:54;;;;;;;25.15;16.63;;;14.90;99.90;;;;;;5013874;28;20123;-84
2023/06/30 00:03:22;;;;;;;20.42;18.35;;;14.90;99.90;;;;;;5013989;28;20041;-84
2023/06/30 00:05:48;;;;;;;17.98;16.10;;;14.80;99.90;;;;;;5013649;28;20093;-84
2023/06/30 00:08:15;;;;;;;23.83;16.77;;;14.70;99.90;;;;;;5013640;28;20053;-83
2023/06/30 00:10:41;;;;;;;18.25;14.68;;;14.70;99.90;;;;;;5013085;28;20219;-83
2023/06/30 00:13:07;;;;;;;19.70;17.25;;;14.70;99.90;;;;;;4995989;28;20511;-83
2023/06/30 00:15:32;;;;;;;19.58;17.27;;;14.70;99.90;;;;;;4995614;28;20057;-84
2023/06/30 00:17:58;;;;;;;15.73;14.02;;;14.60;99.90;;;;;;4995025;28;20038;-84
2023/06/30 00:20:24;;;;;;;18.92;13.60;;;14.60;99.90;;;;;;4995357;28;20038;-84
2023/06/30 00:22:51;;;;;;;19.90;15.38;;;14.50;99.90;;;;;;4995417;28;20069;-83
2023/06/30 00:25:17;;;;;;;20.48;14.63;;;14.50;99.90;;;;;;4995216;28;20060;-84
2023/06/30 00:27:43;;;;;;;19.55;17.42;;;14.50;99.90;;;;;;4995471;28;20049;-83
2023/06/30 00:30:09;;;;;;;18.92;15.07;;;14.50;99.90;;;;;;4995198;28;20049;-83
2023/06/30 00:32:35;;;;;;;23.27;16.38;;;14.50;99.90;;;;;;5012032;28;20038;-83
2023/06/30 00:35:00;;;;;;;21.63;15.98;;;14.40;99.90;;;;;;5012192;28;20093;-84
2023/06/30 00:37:26;;;;;;;18.42;16.73;;;14.40;99.90;;;;;;4978812;28;20049;-83
2023/06/30 00:39:52;;;;;;;17.88;14.63;;;14.50;99.90;;;;;;4995385;28;20106;-83
2023/06/30 00:42:18;;;;;;;20.30;18.27;;;14.30;99.90;;;;;;4994895;28;20455;-84
2023/06/30 00:44:44;;;;;;;19.17;16.83;;;14.30;99.90;;;;;;5012412;28;20129;-84
2023/06/30 00:47:10;;;;;;;16.08;14.48;;;14.20;99.90;;;;;;4974692;28;20106;-84
2023/06/30 00:49:36;;;;;;;18.58;16.38;;;14.20;99.90;;;;;;4992515;28;20170;-84
2023/06/30 00:52:03;;;;;;;20.33;17.08;;;14.20;99.90;;;;;;4992906;28;20046;-83
2023/06/30 00:54:29;;;;;;;19.60;17.40;;;14.10;99.90;;;;;;4975898;28;20042;-83
2023/06/30 00:56:58;;;;;;;18.55;16.58;;;14.10;99.90;;;;;;4975349;28;20544;-83
2023/06/30 00:59:23;;;;;;;18.88;16.40;;;14.00;99.90;;;;;;4975189;28;20038;-83
2023/06/30 01:01:56;;;;;;;18.45;14.40;;;14.00;99.90;;;;;;4985279;28;20037;-84
2023/06/30 01:04:35;;;;;;;21.25;19.13;;;14.00;99.90;;;;;;4994585;28;20048;-83
2023/06/30 01:07:19;;;;;;;18.08;16.35;;;14.00;99.90;;;;;;4994641;28;20512;-83
2023/06/30 01:09:58;;;;;;;22.48;20.33;;;14.00;99.90;;;;;;4994187;28;20046;-84
2023/06/30 01:12:25;;;;;;;20.98;18.88;;;14.00;99.90;;;;;;4994279;28;20057;-84
2023/06/30 01:14:53;;;;;;;23.42;18.67;;;13.90;99.90;;;;;;5011632;28;20523;-84
2023/06/30 01:17:20;;;;;;;22.10;17.30;;;13.90;99.90;;;;;;4977983;28;20057;-83
2023/06/30 01:19:50;;;;;;;21.25;19.35;;;13.90;99.90;;;;;;4994735;28;20041;-83
2023/06/30 01:22:39;;;;;;;22.13;18.60;;;14.00;99.90;;;;;;4993322;28;20174;-84
2023/06/30 01:25:09;;;;;;;23.02;16.00;;;13.90;99.90;;;;;;4994333;28;20481;-84
2023/06/30 01:27:36;;;;;;;19.92;18.13;;;13.90;99.90;;;;;;4994452;28;20129;-83
2023/06/30 01:30:05;;;;;;;21.73;19.38;;;13.80;99.90;;;;;;4993851;28;20041;-84
2023/06/30 01:32:31;;;;;;;20.60;18.48;;;13.80;99.90;;;;;;5010219;28;20092;-83
2023/06/30 01:34:57;;;;;;;19.83;17.42;;;13.90;99.90;;;;;;4977702;28;20115;-83
2023/06/30 01:37:23;;;;;;;21.73;18.48;;;13.90;99.90;;;;;;4994325;28;20046;-84
2023/06/30 01:39:49;;;;;;;19.35;17.58;;;13.70;99.90;;;;;;4993840;28;20069;-83
2023/06/30 01:42:16;;;;;;;17.33;14.70;;;13.60;99.90;;;;;;4993424;28;20142;-83
2023/06/30 01:44:43;;;;;;;22.10;20.02;;;13.60;99.90;;;;;;5010689;28;20100;-83
2023/06/30 01:47:10;;;;;;;20.55;17.27;;;13.60;99.90;;;;;;5011452;28;20037;-84
2023/06/30 01:49:35;;;;;;;19.75;17.90;;;13.60;99.90;;;;;;4994011;28;20563;-84
2023/06/30 01:52:02;;;;;;;18.70;16.77;;;13.50;99.90;;;;;;4994192;28;20080;-83
2023/06/30 01:54:27;;;;;;;20.13;18.05;;;13.40;99.90;;;;;;5011025;28;20100;-83
2023/06/30 01:56:53;;;;;;;18.08;16.15;;;13.50;99.90;;;;;;4993250;28;20077;-83
2023/06/30 01:59:19;;;;;;;18.77;15.95;;;13.30;99.90;;;;;;5010095;28;20771;-83
2023/06/30 02:01:45;;;;;;;21.95;17.20;;;13.30;99.90;;;;;;5011204;28;20065;-84
2023/06/30 02:04:11;;;;;;;18.67;16.88;;;13.30;99.90;;;;;;5011517;28;20129;-84
2023/06/30 02:06:37;;;;;;;19.17;17.50;;;13.20;99.90;;;;;;4994014;28;20081;-83
2023/06/30 02:09:03;;;;;;;19.35;16.85;;;13.20;99.90;;;;;;4993718;28;20115;-83
2023/06/30 02:11:28;;;;;;;20.10;18.17;;;13.20;99.90;;;;;;4993128;28;20046;-84
2023/06/30 02:13:54;;;;;;;19.90;16.92;;;13.10;99.90;;;;;;5010433;28;20103;-83
2023/06/30 02:16:19;;;;;;;21.30;19.15;;;13.10;99.90;;;;;;4993436;28;20047;-84
2023/06/30 02:18:45;;;;;;;22.25;19.27;;;13.10;99.90;;;;;;4993664;28;20745;-83
2023/06/30 02:21:11;;;;;;;20.60;18.00;;;13.10;99.90;;;;;;5011204;28;20511;-82
2023/06/30 02:23:36;;;;;;;20.05;18.20;;;13.00;99.90;;;;;;4976798;28;20393;-83
2023/06/30 02:26:02;;;;;;;23.23;21.15;;;13.00;99.90;;;;;;4993287;28;20116;-84
2023/06/30 02:28:28;;;;;;;21.00;19.17;;;13.00;99.90;;;;;;5010137;28;20096;-82
2023/06/30 02:30:54;;;;;;;23.45;19.77;;;12.90;99.90;;;;;;4992750;28;20046;-83
2023/06/30 02:33:20;;;;;;;18.35;16.48;;;12.90;99.90;;;;;;5010911;28;20036;-82
2023/06/30 02:35:46;;;;;;;21.95;20.00;;;12.90;99.90;;;;;;4993046;28;20461;-83
2023/06/30 02:38:11;;;;;;;21.42;19.40;;;12.80;99.90;;;;;;5010377;28;20053;-82
2023/06/30 02:40:37;;;;;;;24.27;22.08;;;12.80;99.90;;;;;;4992668;28;20048;-83
2023/06/30 02:43:03;;;;;;;19.42;17.25;;;12.70;99.90;;;;;;5009794;28;20103;-82
2023/06/30 02:45:28;;;;;;;19.85;18.02;;;12.80;99.90;;;;;;4992738;28;20080;-83
2023/06/30 02:47:54;;;;;;;20.00;17.95;;;12.70;99.90;;;;;;4993191;28;20048;-82
2023/06/30 02:50:29;;;;;;;24.08;20.65;;;12.70;99.90;;;;;;5010350;28;20121;-82
2023/06/30 02:52:55;;;;;;;22.33;20.50;;;12.60;99.90;;;;;;5010883;28;20038;-83
2023/06/30 02:55:22;;;;;;;17.50;14.00;;;12.60;99.90;;;;;;4993062;28;20064;-81
2023/06/30 02:57:47;;;;;;;21.65;19.40;;;12.60;99.90;;;;;;4992053;28;20088;-82
2023/06/30 03:00:14;;;;;;;22.73;20.73;;;12.60;99.90;;;;;;4993003;28;20034;-83
2023/06/30 03:02:39;;;;;;;23.25;21.08;;;12.60;99.90;;;;;;5011378;28;20041;-83
2023/06/30 03:05:06;;;;;;;26.92;24.65;;;12.50;99.90;;;;;;5010563;28;20238;-83
2023/06/30 03:07:32;;;;;;;25.00;22.83;;;12.50;99.90;;;;;;5010775;28;20053;-82
2023/06/30 03:09:58;;;;;;;21.17;18.95;;;12.50;99.90;;;;;;4989320;28;20047;-82
2023/06/30 03:12:24;;;;;;;24.73;22.60;;;12.40;99.90;;;;;;4989971;28;20125;-84
2023/06/30 03:14:49;;;;;;;22.08;19.83;;;12.50;99.90;;;;;;4989360;28;20133;-82
2023/06/30 03:17:18;;;;;;;19.70;17.73;;;12.40;99.90;;;;;;4990446;28;20070;-84
2023/06/30 03:19:44;;;;;;;24.70;22.10;;;12.40;99.90;;;;;;4989421;28;20046;-82
2023/06/30 03:22:09;;;;;;;24.10;18.48;;;12.40;99.90;;;;;;4973239;28;20042;-82
2023/06/30 03:24:35;;;;;;;20.75;18.98;;;12.40;99.90;;;;;;4989497;28;20046;-83
2023/06/30 03:27:01;;;;;;;22.83;20.75;;;12.30;99.90;;;;;;4988762;28;20133;-83
2023/06/30 03:29:26;;;;;;;24.30;22.10;;;12.30;99.90;;;;;;4990657;28;20694;-83
2023/06/30 03:31:52;;;;;;;26.20;24.17;;;12.30;99.90;;;;;;4990540;28;20080;-84
2023/06/30 03:34:18;;;;;;;21.00;19.20;;;12.30;99.90;;;;;;4989352;28;20045;-83
2023/06/30 03:36:44;;;;;;;22.00;19.70;;;12.30;99.90;;;;;;4989639;28;20038;-82
2023/06/30 03:39:10;;;;;;;17.52;15.70;;;12.30;99.90;;;;;;4989527;28;20042;-84
2023/06/30 03:41:35;;;;;;;24.00;21.38;;;12.30;99.90;;;;;;4989089;28;20038;-82
2023/06/30 03:44:01;;;;;;;25.10;22.75;;;12.30;99.90;;;;;;4989548;28;20050;-83
2023/06/30 03:46:27;;;;;;;26.45;24.02;;;12.30;99.90;;;;;;4993222;28;20233;-82
2023/06/30 03:48:52;;;;;;;23.85;21.55;;;12.30;99.90;;;;;;4993091;28;20092;-84
2023/06/30 03:51:18;;;;;;;18.33;16.58;;;12.30;99.90;;;;;;4977110;28;20038;-82
2023/06/30 03:53:44;;;;;;;22.83;20.65;;;12.50;99.90;;;;;;4993849;28;20041;-83
2023/06/30 03:56:10;;;;;;;21.45;19.58;;;12.40;99.90;;;;;;4993781;28;20635;-83
2023/06/30 03:58:38;;;;;;;17.98;16.13;;;12.30;99.90;;;;;;4993401;28;20042;-83
2023/06/30 04:01:05;;;;;;;16.15;13.40;;;12.40;99.90;;;;;;4999210;28;20046;-82
2023/06/30 04:03:31;;;;;;;22.75;20.40;;;12.40;99.90;;;;;;4977478;28;20053;-85
2023/06/30 04:05:56;;;;;;;19.17;17.48;;;12.30;99.90;;;;;;4992966;28;20042;-83
2023/06/30 04:08:22;;;;;;;20.30;18.33;;;11.90;99.90;;;;;;4993812;28;20066;-84
2023/06/30 04:10:48;;;;;;;21.15;19.52;;;12.40;99.90;;;;;;4974576;28;20051;-83
2023/06/30 04:13:13;;;;;;;22.77;20.58;;;12.40;99.90;;;;;;4992016;28;20607;-83
2023/06/30 04:15:39;;;;;;;19.67;17.95;;;12.50;99.90;;;;;;4991944;28;20042;-83
2023/06/30 04:18:05;;;;;;;21.02;19.13;;;12.40;99.90;;;;;;4991837;28;20137;-85
2023/06/30 04:20:30;;;;;;;17.70;16.00;;;12.40;99.90;;;;;;4992388;28;20088;-82
2023/06/30 04:22:56;;;;;;;20.30;18.33;;;12.40;99.90;;;;;;4993044;28;20113;-83
2023/06/30 04:25:22;;;;;;;21.38;19.50;;;12.40;99.90;;;;;;4991391;28;20049;-83
2023/06/30 04:27:47;;;;;;;27.13;19.73;;;12.50;99.90;;;;;;4992050;28;20042;-84
2023/06/30 04:30:13;;;;;;;19.63;17.92;;;12.50;99.90;;;;;;4991928;28;20049;-83
2023/06/30 04:32:39;;;;;;;17.88;16.08;;;12.60;99.90;;;;;;4991838;28;20057;-84
2023/06/30 04:35:05;;;;;;;18.85;17.15;;;12.60;99.90;;;;;;4991799;28;20755;-84
2023/06/30 04:37:31;;;;;;;24.25;21.92;;;12.60;99.90;;;;;;4990823;28;20130;-84
2023/06/30 04:39:57;;;;;;;20.00;18.08;;;12.70;99.90;;;;;;4992120;28;20218;-84
2023/06/30 04:42:23;;;;;;;21.60;19.60;;;12.70;99.90;;;;;;4990700;28;20062;-84
2023/06/30 04:44:49;;;;;;;21.52;19.42;;;12.80;99.90;;;;;;4973922;28;20185;-83
2023/06/30 04:47:16;;;;;;;22.50;20.52;;;12.90;99.90;;;;;;4990573;28;20042;-83
2023/06/30 04:49:42;;;;;;;22.40;20.20;;;13.00;99.90;;;;;;4992049;28;20049;-83
2023/06/30 04:52:08;;;;;;;21.92;16.95;;;13.30;99.90;;;;;;4974409;28;20150;-83
2023/06/30 04:54:34;;;;;;;18.90;16.50;;;13.40;99.90;;;;;;4989760;28;20125;-83
2023/06/30 04:56:59;;;;;;;15.95;14.45;;;13.70;99.90;;;;;;4990459;28;20061;-83
2023/06/30 04:59:25;;;;;;;16.30;12.63;;;13.60;99.90;;;;;;4990138;28;20038;-84
2023/06/30 05:01:51;;;;;;;16.58;15.00;;;13.60;99.90;;;;;;4973627;28;20126;-83
2023/06/30 05:04:17;;;;;;;12.85;10.63;;;13.90;99.90;;;;;;4990061;28;20234;-83
2023/06/30 05:06:43;;;;;;;16.20;13.25;;;14.10;99.90;;;;;;4989405;28;20054;-84
2023/06/30 05:09:09;;;;;;;15.48;11.80;;;14.10;99.90;;;;;;4988212;28;20035;-84
2023/06/30 05:11:35;;;;;;;14.10;10.98;;;14.10;99.90;;;;;;5008983;28;20111;-83
2023/06/30 05:14:00;;;;;;;17.20;12.40;;;14.30;99.90;;;;;;4992442;28;20054;-85
2023/06/30 05:16:26;;;;;;;17.25;11.52;;;14.60;99.90;;;;;;4992985;28;20503;-85
2023/06/30 05:18:52;;;;;;;13.65;7.70;;;15.60;99.90;;;;;;4993291;28;20053;-86
2023/06/30 05:21:18;;;;;;;16.02;11.98;;;17.30;99.90;;;;;;5010652;28;20034;-85
2023/06/30 05:23:43;;;;;;;29.85;27.52;;;18.70;99.90;;;;;;4976583;28;20615;-86
2023/06/30 05:26:10;;;;;;;23.20;21.55;;;20.10;99.90;;;;;;4993444;28;20077;-86
2023/06/30 05:28:35;;;;;;;16.60;12.23;;;21.20;99.90;;;;;;4992674;28;20042;-86
2023/06/30 05:31:02;;;;;;;11.40;10.38;;;22.10;99.90;;;;;;5010705;28;20041;-85
2023/06/30 05:33:27;;;;;;;12.05;8.05;;;22.80;99.90;;;;;;4993382;28;20076;-86
2023/06/30 05:35:54;;;;;;;14.02;6.15;;;23.70;99.90;;;;;;5010446;28;20042;-85
2023/06/30 05:38:19;;;;;;;9.02;4.90;;;24.20;99.90;;;;;;4976201;28;20096;-85
2023/06/30 05:40:45;;;;;;;9.85;4.68;;;24.80;99.90;;;;;;4992818;28;20414;-84
2023/06/30 05:43:11;;;;;;;9.65;6.03;;;25.10;99.90;;;;;;4992693;28;20038;-86
2023/06/30 05:45:37;;;;;;;63.42;59.58;;;25.40;99.90;;;;;;4976638;28;20119;-85
2023/06/30 05:48:02;;;;;;;145.10;136.55;;;25.90;99.90;;;;;;4992580;28;20120;-85
2023/06/30 05:50:28;;;;;;;164.63;154.63;;;26.20;99.90;;;;;;4992642;28;20041;-85
2023/06/30 05:52:55;;;;;;;406.92;377.10;;;26.70;99.90;;;;;;5011417;28;20130;-86
2023/06/30 05:55:20;;;;;;;523.03;481.10;;;26.90;99.10;;;;;;4994687;28;20056;-85
2023/06/30 05:57:46;;;;;;;599.38;550.15;;;27.10;98.50;;;;;;5011235;28;20459;-86
2023/06/30 06:00:12;;;;;;;848.75;771.97;;;27.70;97.50;;;;;;5010451;28;20070;-86
2023/06/30 06:02:38;;;;;;;952.65;863.30;;;27.20;98.10;;;;;;4992653;28;20520;-86
2023/06/30 06:05:04;;;;;;;868.53;789.47;;;26.40;96.90;;;;;;4992260;28;20046;-86
2023/06/30 06:07:30;;;;;;;655.13;600.45;;;25.30;98.90;;;;;;5009419;28;20195;-85
2023/06/30 06:09:55;;;;;;;780.13;709.83;;;25.20;99.90;;;;;;4992370;28;20335;-86
2023/06/30 06:12:21;;;;;;;930.08;832.05;;;25.90;99.90;;;;;;4992199;28;20042;-86
2023/06/30 06:14:47;;;;;;;1009.38;904.38;;;26.50;98.70;;;;;;5010346;28;20092;-86
2023/06/30 06:17:13;;;;;;;1051.47;935.15;;;26.90;98.60;;;;;;4992374;28;20042;-86
2023/06/30 06:19:39;;;;;;;1067.97;953.13;;;27.40;97.20;;;;;;4992019;28;20048;-86
2023/06/30 06:22:05;;;;;;;1123.72;977.70;;;27.50;97.00;;;;;;4991887;28;20400;-86
2023/06/30 06:24:30;;;;;;;1174.30;994.50;;;28.10;97.80;;;;;;4992225;28;20484;-86
2023/06/30 06:26:56;;;;;;;1494.70;999.90;;;28.10;96.70;;;;;;4992234;28;20049;-84
2023/06/30 06:29:22;;;;;;;1377.00;999.90;;;28.70;97.30;;;;;;5009707;28;20034;-86
2023/06/30 06:31:52;;;;;;;1505.85;999.90;;;29.10;96.80;;;;;;4991775;28;20038;-84
2023/06/30 06:34:21;;;;;;;1573.35;999.90;;;29.10;95.40;;;;;;4975944;28;20405;-84
2023/06/30 06:36:47;;;;;;;1813.47;999.90;;;29.00;95.70;;;;;;5009243;28;20037;-84
2023/06/30 06:39:14;;;;;;;1721.15;999.90;;;28.90;94.80;;;;;;4975990;28;20057;-85
2023/06/30 06:41:40;;;;;;;1504.15;999.90;;;28.80;95.70;;;;;;5009815;28;20040;-84
2023/06/30 06:44:05;;;;;;;1837.85;999.90;;;28.90;95.00;;;;;;4992167;28;20037;-85
2023/06/30 06:46:31;;;;;;;1804.57;999.90;;;29.40;95.00;;;;;;4991841;28;20482;-85
2023/06/30 06:48:57;;;;;;;1999.90;999.90;;;29.70;94.20;;;;;;5010260;28;20586;-85
2023/06/30 06:51:23;;;;;;;1999.90;999.90;;;29.70;93.10;;;;;;4991037;28;20053;-84
2023/06/30 06:53:52;;;;;;;1999.90;999.90;;;29.20;92.90;;;;;;4991482;28;20034;-85
2023/06/30 06:56:18;;;;;;;1999.90;999.90;;;28.30;94.50;;;;;;4991505;28;20074;-85
2023/06/30 06:58:45;;;;;;;1876.32;999.90;;;28.10;95.90;;;;;;5008751;28;20092;-85
2023/06/30 07:01:11;;;;;;;1582.88;999.90;;;28.10;95.80;;;;;;4991414;28;20038;-85
2023/06/30 07:03:37;;;;;;;1862.05;999.90;;;28.10;94.50;;;;;;5008427;28;20420;-85
2023/06/30 07:06:03;;;;;;;1961.57;999.90;;;28.40;95.40;;;;;;4991568;28;20038;-86
2023/06/30 07:08:34;;;;;;;1983.18;999.90;;;29.10;95.60;;;;;;5009260;28;20392;-86
2023/06/30 07:11:00;;;;;;;1999.90;999.90;;;29.60;94.50;;;;;;4987620;28;20501;-86
2023/06/30 07:13:26;;;;;;;1999.90;999.90;;;29.50;93.80;;;;;;4989341;28;20182;-85
2023/06/30 07:15:52;;;;;;;1999.90;999.90;;;28.60;94.30;;;;;;4987506;28;20607;-85
2023/06/30 07:18:18;;;;;;;1969.82;999.90;;;27.30;94.30;;;;;;4987543;28;20043;-85
2023/06/30 07:20:45;;;;;;;1997.45;999.90;;;27.20;95.90;;;;;;4991134;28;20136;-85
2023/06/30 07:23:10;;;;;;;1736.07;999.90;;;26.80;94.60;;;;;;4991740;28;20045;-85
2023/06/30 07:25:36;;;;;;;1491.40;999.90;;;26.00;95.20;;;;;;4992076;28;20396;-85
2023/06/30 07:28:02;;;;;;;1328.30;999.90;;;26.00;94.80;;;;;;4993113;28;20049;-85
2023/06/30 07:30:28;;;;;;;1343.32;999.90;;;26.50;95.60;;;;;;4991506;28;20046;-85
2023/06/30 07:32:54;;;;;;;1344.40;999.90;;;27.60;94.70;;;;;;4991113;28;20121;-86
2023/06/30 07:35:21;;;;;;;1683.20;999.90;;;27.80;93.90;;;;;;4975390;28;20606;-86
2023/06/30 07:37:48;;;;;;;1491.82;999.90;;;27.50;93.20;;;;;;4991559;28;20090;-85
2023/06/30 07:40:15;;;;;;;1519.22;999.90;;;27.10;93.20;;;;;;4991411;28;20035;-85
2023/06/30 07:42:40;;;;;;;1370.82;999.90;;;26.60;93.90;;;;;;4992922;28;20046;-85
2023/06/30 07:45:09;;;;;;;1303.68;999.90;;;26.80;94.40;;;;;;4991836;28;20402;-85
2023/06/30 07:47:35;;;;;;;1253.75;999.90;;;27.10;93.40;;;;;;4990421;28;20062;-85
2023/06/30 07:50:01;;;;;;;1557.35;999.90;;;27.60;93.70;;;;;;4991308;28;20050;-85
2023/06/30 07:52:28;;;;;;;1693.93;999.90;;;27.90;93.80;;;;;;4991133;28;20050;-86
2023/06/30 07:54:55;;;;;;;1348.55;999.90;;;27.80;92.80;;;;;;4974808;28;20046;-85
2023/06/30 07:57:24;;;;;;;1359.00;999.90;;;26.80;92.50;;;;;;4991401;28;20048;-85
2023/06/30 07:59:49;;;;;;;1225.07;999.90;;;26.40;94.30;;;;;;4992308;28;20170;-85
2023/06/30 08:02:17;;;;;;;1530.95;999.90;;;26.80;93.90;;;;;;4991727;28;20042;-85
2023/06/30 08:04:43;;;;;;;1621.22;999.90;;;26.20;94.30;;;;;;4991532;28;20054;-85
2023/06/30 08:07:08;;;;;;;1264.72;999.90;;;25.70;95.30;;;;;;4991389;28;20050;-85
2023/06/30 08:09:34;;;;;;;1105.78;979.08;;;25.80;95.90;;;;;;4993812;28;20053;-85
2023/06/30 08:12:00;;;;;;;1230.22;999.90;;;26.00;94.20;;;;;;4994856;28;20081;-85
2023/06/30 08:14:26;;;;;;;1088.05;971.10;;;26.00;93.80;;;;;;4994346;28;20046;-85
2023/06/30 08:16:51;;;;;;;1087.45;967.20;;;25.70;94.50;;;;;;4994009;28;20038;-85
2023/06/30 08:19:18;;;;;;;1085.82;966.88;;;26.20;94.10;;;;;;4978203;28;20049;-85
2023/06/30 08:21:43;;;;;;;1073.97;959.83;;;26.00;94.20;;;;;;4994680;28;20456;-85
2023/06/30 08:24:09;;;;;;;1245.60;996.47;;;25.60;93.90;;;;;;5011941;28;20045;-85
2023/06/30 08:26:35;;;;;;;1141.97;970.92;;;24.80;94.80;;;;;;5011805;28;20045;-84
2023/06/30 08:29:00;;;;;;;1148.55;984.10;;;24.00;95.10;;;;;;4994002;28;20046;-85
2023/06/30 08:31:26;;;;;;;1025.25;922.08;;;24.40;97.10;;;;;;4993701;28;20469;-85
2023/06/30 08:33:52;;;;;;;984.88;890.63;;;25.50;95.50;;;;;;4993756;28;20062;-85
2023/06/30 08:36:17;;;;;;;1081.30;964.65;;;26.20;94.90;;;;;;5011973;28;20076;-85
2023/06/30 08:38:43;;;;;;;1052.63;945.70;;;27.00;94.70;;;;;;4993706;28;20462;-85
2023/06/30 08:41:09;;;;;;;1186.38;998.80;;;27.30;93.00;;;;;;4978419;28;20037;-85
2023/06/30 08:43:37;;;;;;;1458.00;999.90;;;27.80;92.90;;;;;;5011605;28;20029;-85
2023/06/30 08:46:05;;;;;;;1474.80;999.90;;;28.20;91.40;;;;;;5010827;28;20046;-85
2023/06/30 08:48:31;;;;;;;1767.22;999.90;;;28.40;91.40;;;;;;5012099;28;20042;-85
2023/06/30 08:50:58;;;;;;;1999.90;999.90;;;28.50;90.90;;;;;;4993927;28;20054;-85
2023/06/30 08:53:27;;;;;;;1873.55;999.90;;;28.60;92.60;;;;;;4977513;28;20526;-85
2023/06/30 08:55:56;;;;;;;1924.72;999.90;;;28.00;90.80;;;;;;4993702;28;20042;-85
2023/06/30 08:58:22;;;;;;;1624.68;999.90;;;26.90;90.70;;;;;;4977647;28;20042;-85
2023/06/30 09:00:47;;;;;;;1556.47;999.90;;;25.80;91.20;;;;;;4977249;28;20555;-85
2023/06/30 09:03:13;;;;;;;1702.47;999.90;;;25.40;91.60;;;;;;4993918;28;20205;-85
2023/06/30 09:05:41;;;;;;;1253.18;998.60;;;25.60;92.30;;;;;;4993517;28;20368;-85
2023/06/30 09:08:21;;;;;;;1542.22;999.90;;;25.70;91.80;;;;;;4993428;28;20091;-85
2023/06/30 09:10:48;;;;;;;1973.32;999.90;;;25.80;91.40;;;;;;5010674;28;20058;-85
2023/06/30 09:13:17;;;;;;;1960.95;999.90;;;25.80;92.90;;;;;;5011294;28;20046;-85
2023/06/30 09:15:44;;;;;;;1799.40;999.90;;;25.90;93.20;;;;;;4992513;28;20080;-85
2023/06/30 09:18:11;;;;;;;1986.80;999.90;;;26.20;92.80;;;;;;5010779;28;20387;-85
2023/06/30 09:20:38;;;;;;;1570.60;999.90;;;26.30;92.40;;;;;;5011033;28;20045;-85
2023/06/30 09:23:04;;;;;;;1859.88;999.90;;;25.90;91.30;;;;;;4993591;28;20069;-86
2023/06/30 09:25:32;;;;;;;1769.85;999.90;;;25.90;92.20;;;;;;5010655;28;20042;-85
2023/06/30 09:27:58;;;;;;;1565.82;999.90;;;25.90;91.80;;;;;;4993427;28;20038;-85
2023/06/30 09:30:46;;;;;;;1713.10;999.90;;;25.90;91.60;;;;;;5010223;28;20091;-85
2023/06/30 09:33:16;;;;;;;1405.70;999.90;;;25.90;92.00;;;;;;4993370;28;20096;-86
2023/06/30 09:35:44;;;;;;;1835.68;999.90;;;26.00;92.00;;;;;;5011017;28;20042;-85
2023/06/30 09:38:21;;;;;;;1918.28;999.90;;;26.30;92.80;;;;;;4992879;28;20092;-85
2023/06/30 09:40:48;;;;;;;1744.75;999.90;;;26.40;92.10;;;;;;4993122;28;20046;-85
2023/06/30 09:43:21;;;;;;;1481.13;999.90;;;26.00;91.80;;;;;;4991484;28;20042;-85
2023/06/30 09:45:57;;;;;;;1382.88;999.90;;;25.30;92.00;;;;;;4992627;28;20401;-85
2023/06/30 09:48:38;;;;;;;1366.40;999.90;;;24.80;92.60;;;;;;5010058;28;20061;-85
2023/06/30 09:51:04;;;;;;;1227.05;994.53;;;25.00;92.00;;;;;;5010331;28;20113;-85
2023/06/30 09:53:41;;;;;;;1222.75;993.45;;;25.40;92.10;;;;;;4992338;28;20045;-85
2023/06/30 09:56:08;;;;;;;1510.15;999.90;;;25.40;91.20;;;;;;4992429;28;20073;-85
2023/06/30 09:58:35;;;;;;;1071.00;951.70;;;25.70;92.30;;;;;;4992023;28;20095;-85
2023/06/30 10:01:01;;;;;;;1147.50;979.35;;;25.90;91.10;;;;;;4992289;28;20038;-85
2023/06/30 10:03:27;;;;;;;1622.90;999.90;;;26.00;90.50;;;;;;4992549;28;20042;-85
2023/06/30 10:05:53;;;;;;;1249.70;992.78;;;25.60;90.70;;;;;;5009707;28;20402;-85
2023/06/30 10:08:22;;;;;;;1310.18;998.70;;;24.90;91.10;;;;;;4976022;28;20484;-85
2023/06/30 10:10:53;;;;;;;1064.07;947.90;;;24.70;92.00;;;;;;5009686;28;20428;-85
2023/06/30 10:13:20;;;;;;;1030.18;923.88;;;24.60;92.10;;;;;;4991180;28;20038;-85
2023/06/30 10:15:45;;;;;;;980.25;890.28;;;25.00;92.00;;;;;;4975800;28;20045;-84
2023/06/30 10:18:14;;;;;;;1154.78;985.05;;;25.40;90.60;;;;;;5009952;28;20033;-84
2023/06/30 10:20:41;;;;;;;1091.30;973.45;;;25.60;91.20;;;;;;4992160;28;20077;-85
2023/06/30 10:23:07;;;;;;;1419.18;999.90;;;26.10;90.60;;;;;;4992151;28;20121;-85
2023/06/30 10:25:36;;;;;;;1201.97;996.72;;;26.20;91.00;;;;;;4992088;28;20120;-85
2023/06/30 10:28:02;;;;;;;1466.05;999.90;;;26.20;90.40;;;;;;4975027;28;20038;-85
2023/06/30 10:30:29;;;;;;;1479.63;999.90;;;26.20;91.20;;;;;;5009408;28;20457;-84
2023/06/30 10:32:54;;;;;;;1678.70;999.90;;;26.00;91.00;;;;;;5009414;28;20038;-84
2023/06/30 10:35:21;;;;;;;1490.32;999.90;;;25.60;91.40;;;;;;5009626;28;20046;-85
2023/06/30 10:37:47;;;;;;;1181.15;979.13;;;25.30;91.70;;;;;;4991944;28;20077;-85
2023/06/30 10:40:29;;;;;;;1182.20;968.05;;;24.90;91.50;;;;;;4991519;28;20088;-84
2023/06/30 10:42:56;;;;;;;1023.85;919.40;;;24.70;91.80;;;;;;4991038;28;20026;-84
2023/06/30 10:45:32;;;;;;;1007.90;906.85;;;24.50;92.60;;;;;;4991576;28;20105;-84
2023/06/30 10:48:12;;;;;;;1040.78;928.38;;;24.40;91.60;;;;;;4991494;28;20038;-85
2023/06/30 10:50:43;;;;;;;1037.22;927.47;;;24.60;92.80;;;;;;4975629;28;20049;-85
2023/06/30 10:53:17;;;;;;;885.83;809.13;;;24.70;92.20;;;;;;5009685;28;20080;-84
2023/06/30 10:55:43;;;;;;;819.55;753.20;;;24.30;91.10;;;;;;4994690;28;20054;-84
2023/06/30 10:58:09;;;;;;;801.13;738.38;;;23.90;91.20;;;;;;5013642;28;20042;-84
2023/06/30 11:00:35;;;;;;;853.08;780.10;;;23.80;90.50;;;;;;4980176;28;20096;-86
2023/06/30 11:03:04;;;;;;;807.25;743.25;;;24.10;91.90;;;;;;5014175;28;20142;-85
2023/06/30 11:05:32;;;;;;;809.42;743.50;;;24.50;91.50;;;;;;4979781;28;20045;-85
2023/06/30 11:08:01;;;;;;;816.45;750.38;;;25.00;91.40;;;;;;4996515;28;20407;-84
2023/06/30 11:10:32;;;;;;;798.65;734.10;;;25.20;91.30;;;;;;4995532;28;20123;-85
2023/06/30 11:13:00;;;;;;;742.20;685.72;;;25.10;90.30;;;;;;4996303;28;20053;-84
2023/06/30 11:15:38;;;;;;;725.47;671.20;;;24.70;90.30;;;;;;4996419;28;20050;-85
2023/06/30 11:18:17;;;;;;;691.45;640.28;;;24.50;90.20;;;;;;4996717;28;20050;-84
2023/06/30 11:21:01;;;;;;;851.85;778.97;;;24.40;90.50;;;;;;5014356;28;20042;-84
2023/06/30 11:23:32;;;;;;;816.33;747.47;;;24.60;91.30;;;;;;5013932;28;20041;-85
2023/06/30 11:26:10;;;;;;;786.97;724.05;;;24.40;91.40;;;;;;4995847;28;20055;-84
2023/06/30 11:28:36;;;;;;;771.30;708.63;;;24.40;91.60;;;;;;5014142;28;20396;-85
2023/06/30 11:31:02;;;;;;;709.40;655.53;;;24.30;91.30;;;;;;4995181;28;20504;-85
2023/06/30 11:33:28;;;;;;;548.88;510.17;;;23.90;91.70;;;;;;4996583;28;20046;-85
2023/06/30 11:35:59;;;;;;;591.25;547.85;;;23.70;91.60;;;;;;4979941;28;20042;-84
2023/06/30 11:38:25;;;;;;;602.05;558.03;;;23.50;92.10;;;;;;4995486;28;20046;-84
2023/06/30 11:40:50;;;;;;;631.08;584.53;;;23.70;92.60;;;;;;4994899;28;20174;-84
2023/06/30 11:43:17;;;;;;;678.13;627.42;;;24.00;92.50;;;;;;4996207;28;20459;-84
2023/06/30 11:45:54;;;;;;;576.85;535.80;;;24.40;92.30;;;;;;4995517;28;20045;-84
2023/06/30 11:48:22;;;;;;;754.90;695.72;;;24.60;90.70;;;;;;4995456;28;20045;-84
2023/06/30 11:50:48;;;;;;;819.00;751.60;;;25.00;91.90;;;;;;5013082;28;20447;-85
2023/06/30 11:53:14;;;;;;;814.97;748.67;;;25.40;91.50;;;;;;5013017;28;20038;-85
2023/06/30 11:55:44;;;;;;;911.15;827.28;;;25.40;90.90;;;;;;5012496;28;20575;-84
2023/06/30 11:58:09;;;;;;;902.25;822.10;;;25.50;91.30;;;;;;4995594;28;20473;-84
2023/06/30 12:00:35;;;;;;;746.13;688.38;;;25.40;90.50;;;;;;5012898;28;20070;-84
2023/06/30 12:03:01;;;;;;;906.60;825.30;;;25.30;90.90;;;;;;5012678;28;20038;-84
2023/06/30 12:05:27;;;;;;;898.33;817.88;;;25.10;90.90;;;;;;5012316;28;20080;-84
2023/06/30 12:07:55;;;;;;;915.08;834.60;;;25.40;91.30;;;;;;4960337;28;20481;-84
2023/06/30 12:10:22;;;;;;;994.80;899.47;;;25.70;91.40;;;;;;4958660;28;20073;-84
2023/06/30 12:12:58;;;;;;;1035.25;927.45;;;25.90;91.50;;;;;;4975611;28;20129;-85